Time;durP1;ratioP1;P1;durP2;ratioP2;P2;SDS_P1;SDS_P2;PMS_P1;PMS_P2;Temp;Humidity;BMP_temperature;BMP_pressure;BME280_temperature;BME280_humidity;BME280_pressure;Samples;Min_cycle;Max_cycle;Signal;HPM_P1;HPM_P2
2021/10/21 00:00:24;;;;;;;3.55;2.38;;;;;;;15.19;63.72;97938.78;10343580;28;20447;-61
2021/10/21 00:05:25;;;;;;;4.18;2.20;;;;;;;15.11;63.81;97925.66;10344241;28;20069;-61
2021/10/21 00:10:27;;;;;;;8.10;2.70;;;;;;;15.03;64.56;97886.19;10344370;28;20046;-61
2021/10/21 00:15:29;;;;;;;4.80;2.05;;;;;;;15.00;63.78;97887.31;10343316;28;20061;-61
2021/10/21 00:20:31;;;;;;;6.90;2.55;;;;;;;15.03;63.53;97844.88;10343465;28;20042;-61
2021/10/21 00:25:32;;;;;;;4.75;2.10;;;;;;;15.04;63.34;97848.34;10343057;28;20064;-61
2021/10/21 00:30:34;;;;;;;4.22;2.17;;;;;;;15.07;63.25;97821.66;10344248;28;21045;-61
2021/10/21 00:35:36;;;;;;;4.47;2.15;;;;;;;15.13;63.39;97798.13;10342763;28;20046;-61
2021/10/21 00:40:37;;;;;;;6.68;2.28;;;;;;;15.10;63.42;97776.59;10343769;28;20049;-61
2021/10/21 00:45:39;;;;;;;3.83;1.98;;;;;;;15.15;63.28;97784.75;10343085;28;20052;-61
2021/10/21 00:50:41;;;;;;;3.83;1.98;;;;;;;15.21;63.07;97779.63;10343531;28;20053;-61
2021/10/21 00:55:42;;;;;;;3.78;2.05;;;;;;;15.25;62.81;97761.66;10343047;28;20041;-61
2021/10/21 01:00:44;;;;;;;12.55;2.38;;;;;;;15.36;62.40;97753.38;10343073;28;20441;-61
2021/10/21 01:05:47;;;;;;;3.85;1.80;;;;;;;15.29;62.56;97740.09;10342977;28;20135;-61
2021/10/21 01:10:50;;;;;;;4.20;2.00;;;;;;;15.34;62.18;97721.97;10342816;28;20056;-61
2021/10/21 01:16:05;;;;;;;4.30;2.00;;;;;;;15.35;62.77;97723.59;10342384;28;20680;-61
2021/10/21 01:21:09;;;;;;;5.47;1.98;;;;;;;15.33;63.29;97722.13;10342467;28;20129;-61
2021/10/21 01:26:13;;;;;;;9.50;2.30;;;;;;;15.31;64.42;97801.31;10342460;28;20391;-61
2021/10/21 01:31:14;;;;;;;4.35;2.55;;;;;;;14.56;67.49;97810.66;10343967;28;20060;-61
2021/10/21 01:36:17;;;;;;;3.97;2.10;;;;;;;14.16;69.14;97768.63;10349734;28;20049;-61
2021/10/21 01:41:19;;;;;;;6.30;2.20;;;;;;;14.07;69.02;97730.16;10349698;28;20046;-61
2021/10/21 01:46:21;;;;;;;3.85;1.75;;;;;;;14.04;68.75;97695.53;10347741;28;20056;-61
2021/10/21 01:51:23;;;;;;;3.40;1.70;;;;;;;13.93;68.43;97701.09;10349173;28;20554;-61
2021/10/21 01:56:25;;;;;;;2.63;1.40;;;;;;;13.77;66.92;97666.00;10349075;28;20056;-61
2021/10/21 02:01:27;;;;;;;3.35;1.38;;;;;;;13.61;66.31;97667.81;10350487;28;20042;-61
2021/10/21 02:06:29;;;;;;;3.85;1.40;;;;;;;13.50;65.97;97668.97;10356378;28;20045;-61
2021/10/21 02:11:31;;;;;;;5.18;1.60;;;;;;;13.51;65.94;97693.44;10356430;28;20058;-61
2021/10/21 02:16:32;;;;;;;2.70;1.38;;;;;;;13.44;65.40;97697.69;10355582;28;20065;-61
2021/10/21 02:21:34;;;;;;;3.00;1.30;;;;;;;13.35;64.86;97720.44;10355921;28;20088;-61
2021/10/21 02:26:36;;;;;;;4.78;1.45;;;;;;;13.22;63.45;97716.66;10355203;28;20048;-61
2021/10/21 02:31:37;;;;;;;4.68;1.20;;;;;;;13.29;63.12;97728.19;10355601;28;20068;-61
2021/10/21 02:36:39;;;;;;;10.48;1.40;;;;;;;13.23;61.30;97740.13;10355078;28;20050;-61
2021/10/21 02:41:41;;;;;;;8.50;1.67;;;;;;;13.09;60.69;97737.31;10353772;28;20526;-60
2021/10/21 02:46:43;;;;;;;8.43;1.60;;;;;;;12.95;59.34;97708.09;10354351;28;20089;-60
2021/10/21 02:51:45;;;;;;;9.20;1.80;;;;;;;12.80;57.55;97733.28;10354473;28;20065;-61
2021/10/21 02:56:46;;;;;;;9.38;1.92;;;;;;;12.80;57.86;97737.72;10354239;28;20054;-61
2021/10/21 03:01:48;;;;;;;7.80;1.80;;;;;;;12.74;57.40;97749.66;10353674;28;20682;-61
2021/10/21 03:06:50;;;;;;;7.68;1.83;;;;;;;12.78;57.54;97732.63;10349548;28;20042;-61
2021/10/21 03:11:51;;;;;;;10.25;1.70;;;;;;;12.81;57.00;97734.09;10347250;28;20488;-61
2021/10/21 03:16:53;;;;;;;6.30;1.60;;;;;;;12.87;56.92;97744.78;10345943;28;20068;-62
2021/10/21 03:21:55;;;;;;;11.32;1.90;;;;;;;12.93;56.43;97738.91;10346875;28;20843;-61
2021/10/21 03:26:57;;;;;;;7.13;1.92;;;;;;;12.93;55.91;97732.84;10345894;28;20417;-61
2021/10/21 03:31:58;;;;;;;8.40;1.83;;;;;;;12.92;56.18;97732.00;10346308;28;20316;-61
2021/10/21 03:37:00;;;;;;;9.60;1.80;;;;;;;12.96;56.05;97740.41;10346184;28;20486;-61
2021/10/21 03:42:02;;;;;;;7.70;1.83;;;;;;;12.92;55.79;97732.00;10345853;28;20054;-61
2021/10/21 03:47:04;;;;;;;8.07;1.77;;;;;;;12.90;55.91;97723.47;10345981;28;20045;-61
2021/10/21 03:52:05;;;;;;;5.82;1.55;;;;;;;12.77;55.49;97689.03;10345808;28;20492;-61
2021/10/21 03:57:07;;;;;;;9.85;1.80;;;;;;;12.73;56.10;97695.56;10344402;28;20056;-61
2021/10/21 04:02:10;;;;;;;8.20;2.05;;;;;;;12.71;55.20;97692.28;10345384;28;20064;-60
2021/10/21 04:07:12;;;;;;;8.43;1.70;;;;;;;12.70;54.59;97708.19;10344995;28;20042;-61
2021/10/21 04:12:13;;;;;;;9.60;1.60;;;;;;;12.71;54.75;97718.50;10344299;28;20058;-61
2021/10/21 04:17:15;;;;;;;8.05;1.70;;;;;;;12.71;54.70;97702.78;10344662;28;20510;-61
2021/10/21 04:22:17;;;;;;;7.32;1.98;;;;;;;12.69;53.91;97712.59;10344544;28;20826;-61
2021/10/21 04:27:19;;;;;;;7.35;1.70;;;;;;;12.71;54.38;97710.63;10344429;28;20068;-61
2021/10/21 04:32:21;;;;;;;10.48;2.05;;;;;;;12.71;53.93;97696.69;10343869;28;20413;-61
2021/10/21 04:37:22;;;;;;;9.25;1.50;;;;;;;12.66;53.18;97697.16;10344001;28;20070;-61
2021/10/21 04:42:24;;;;;;;6.38;1.67;;;;;;;12.75;53.53;97688.34;10343851;28;20576;-61
2021/10/21 04:47:26;;;;;;;6.32;1.77;;;;;;;12.76;53.51;97683.94;10342533;28;20081;-61
2021/10/21 04:52:28;;;;;;;8.25;1.65;;;;;;;12.70;53.44;97674.88;10343820;28;20442;-61
2021/10/21 04:57:29;;;;;;;13.43;1.73;;;;;;;12.70;53.16;97674.88;10344225;28;20050;-61
2021/10/21 05:02:31;;;;;;;7.57;1.70;;;;;;;12.60;52.72;97671.56;10342066;28;20076;-61
2021/10/21 05:07:33;;;;;;;12.15;1.80;;;;;;;12.67;53.05;97716.34;10347399;28;20178;-61
2021/10/21 05:12:35;;;;;;;7.63;1.30;;;;;;;12.68;52.89;97708.31;10350715;28;20442;-61
2021/10/21 05:17:36;;;;;;;6.47;1.50;;;;;;;12.71;52.49;97708.00;10351774;28;20061;-61
2021/10/21 05:22:38;;;;;;;16.98;1.65;;;;;;;12.64;52.36;97717.47;10351185;28;20056;-61
2021/10/21 05:27:40;;;;;;;9.82;1.45;;;;;;;12.69;53.02;97751.94;10351234;28;20050;-61
2021/10/21 05:32:41;;;;;;;8.70;1.20;;;;;;;12.65;52.55;97758.47;10350337;28;20442;-61
2021/10/21 05:37:43;;;;;;;5.38;1.20;;;;;;;12.69;52.98;97767.69;10351448;28;20102;-61
2021/10/21 05:42:45;;;;;;;5.60;1.33;;;;;;;12.69;53.20;97783.41;10350379;28;20042;-61
2021/10/21 05:47:47;;;;;;;18.58;1.80;;;;;;;12.60;52.84;97797.44;10349417;28;20042;-61
2021/10/21 05:52:49;;;;;;;9.13;1.38;;;;;;;12.52;53.72;97793.94;10350241;28;20349;-61
2021/10/21 05:57:51;;;;;;;4.05;0.88;;;;;;;12.29;53.77;97817.25;10348204;28;20453;-61
2021/10/21 06:02:53;;;;;;;8.25;1.02;;;;;;;12.20;53.80;97806.81;10339699;28;20331;-62
2021/10/21 06:07:56;;;;;;;5.97;1.10;;;;;;;12.19;53.80;97858.44;10345891;28;20124;-61
2021/10/21 06:12:59;;;;;;;6.43;0.90;;;;;;;12.23;53.78;97833.56;10347229;28;20068;-61
2021/10/21 06:18:03;;;;;;;1.45;0.60;;;;;;;12.06;54.13;97829.16;10347508;28;20056;-62
2021/10/21 06:23:05;;;;;;;7.05;1.00;;;;;;;12.03;54.42;97863.50;10347456;28;20567;-61
2021/10/21 06:28:08;;;;;;;7.80;0.93;;;;;;;11.99;54.57;97878.72;10346388;28;20272;-61
2021/10/21 06:33:10;;;;;;;5.10;0.98;;;;;;;12.03;54.70;97900.19;10346826;28;20054;-61
2021/10/21 06:38:14;;;;;;;7.38;0.80;;;;;;;11.99;54.91;97935.50;10341342;28;20054;-61
2021/10/21 06:43:16;;;;;;;5.93;1.00;;;;;;;11.91;55.56;97919.72;10346761;28;20089;-61
2021/10/21 06:48:17;;;;;;;6.20;0.90;;;;;;;11.83;56.75;97932.72;10346388;28;20065;-62
2021/10/21 06:53:19;;;;;;;2.33;0.77;;;;;;;11.52;58.64;98008.13;10345940;28;20439;-61
2021/10/21 06:58:21;;;;;;;5.47;0.98;;;;;;;11.40;59.31;98022.38;10346092;28;20048;-61
2021/10/21 07:03:23;;;;;;;4.90;0.73;;;;;;;11.50;59.30;98072.09;10347491;28;20053;-61
2021/10/21 07:08:28;;;;;;;0.85;0.57;;;;;;;11.64;58.91;98118.78;10346616;28;20228;-61
2021/10/21 07:13:29;;;;;;;6.00;0.70;;;;;;;11.62;58.75;98170.47;10345076;28;20062;-62
2021/10/21 07:18:38;;;;;;;0.73;0.50;;;;;;;11.68;58.73;98182.97;10375964;28;20096;-62
2021/10/21 07:23:40;;;;;;;2.15;0.60;;;;;;;11.66;59.54;98221.56;10347556;28;20054;-62
2021/10/21 07:28:42;;;;;;;2.20;0.50;;;;;;;11.41;59.36;98238.66;10346404;28;20054;-61
2021/10/21 07:33:44;;;;;;;2.00;0.65;;;;;;;11.47;58.46;98295.72;10346114;28;20057;-61
2021/10/21 07:38:46;;;;;;;1.10;0.47;;;;;;;11.18;59.02;98337.53;10346382;28;20061;-61
2021/10/21 07:43:48;;;;;;;2.42;0.55;;;;;;;10.78;60.31;98390.75;10377429;28;20057;-61
2021/10/21 07:48:50;;;;;;;2.50;0.60;;;;;;;10.56;62.11;98422.28;10345029;28;20049;-62
2021/10/21 07:53:52;;;;;;;4.82;0.73;;;;;;;10.14;62.96;98455.38;10344434;28;20049;-61
2021/10/21 07:58:54;;;;;;;3.03;0.65;;;;;;;10.23;63.15;98530.41;10343688;28;20045;-62
2021/10/21 08:03:57;;;;;;;3.03;0.63;;;;;;;10.30;62.49;98540.25;10344873;28;20112;-62
2021/10/21 08:08:59;;;;;;;1.63;0.80;;;;;;;10.22;62.57;98567.94;10343880;28;20221;-61
2021/10/21 08:14:01;;;;;;;2.20;0.80;;;;;;;10.09;63.07;98570.72;10375485;28;20061;-62
2021/10/21 08:19:03;;;;;;;2.42;0.80;;;;;;;10.26;62.80;98588.47;10375061;28;20046;-61
2021/10/21 08:24:09;;;;;;;2.75;1.00;;;;;;;10.38;62.18;98612.78;10343458;28;20045;-62
2021/10/21 08:29:11;;;;;;;1.08;0.70;;;;;;;10.31;62.03;98622.09;10342037;28;20388;-62
2021/10/21 08:34:13;;;;;;;3.63;1.10;;;;;;;10.45;60.72;98654.03;10344049;28;20087;-61
2021/10/21 08:39:14;;;;;;;3.72;1.50;;;;;;;10.60;59.93;98685.97;10343560;28;20421;-61
2021/10/21 08:44:16;;;;;;;2.97;1.10;;;;;;;10.81;58.89;98715.59;10340190;28;20490;-62
2021/10/21 08:49:19;;;;;;;4.97;1.35;;;;;;;11.07;58.13;98714.38;10342374;28;20046;-62
2021/10/21 08:54:23;;;;;;;3.50;1.23;;;;;;;11.05;58.04;98760.75;10374820;28;20532;-62
2021/10/21 08:59:24;;;;;;;5.45;1.23;;;;;;;11.09;58.03;98766.59;10342814;28;20041;-62
2021/10/21 09:09:29;;;;;;;6.07;1.58;;;;;;;11.62;56.38;98791.84;10342282;28;20049;-62
2021/10/21 09:14:34;;;;;;;7.32;1.70;;;;;;;11.74;56.30;98808.38;10343671;28;20062;-62
2021/10/21 09:19:37;;;;;;;6.40;1.58;;;;;;;12.32;54.56;98813.06;10343788;28;20060;-62
2021/10/21 09:24:40;;;;;;;4.82;1.30;;;;;;;12.76;54.10;98822.41;10343820;28;20495;-62
2021/10/21 09:29:47;;;;;;;8.00;1.50;;;;;;;12.63;52.89;98822.63;10343039;28;20046;-64
2021/10/21 09:34:56;;;;;;;7.20;1.70;;;;;;;13.10;51.63;98810.63;10343698;28;20079;-62
2021/10/21 09:40:07;;;;;;;5.60;1.55;;;;;;;12.72;51.01;98819.19;10343350;28;20112;-63
2021/10/21 09:45:19;;;;;;;;;;;;;;;12.70;51.81;98818.50;10344429;28;20049;-62
2021/10/21 09:50:37;;;;;;;5.60;1.42;;;;;;;13.08;49.65;98837.97;10343393;28;19925;-63
2021/10/21 09:55:40;;;;;;;6.15;1.70;;;;;;;12.63;50.69;98829.66;10348423;28;20405;-63
2021/10/21 10:00:43;;;;;;;6.65;1.67;;;;;;;12.56;50.93;98852.94;10350599;28;20057;-62
2021/10/21 10:05:50;;;;;;;7.47;1.83;;;;;;;12.50;49.67;98874.44;10350042;28;20546;-62
2021/10/21 10:10:57;;;;;;;6.07;1.60;;;;;;;12.32;49.92;98881.22;10349980;28;20133;-63
2021/10/21 10:15:59;;;;;;;6.55;1.50;;;;;;;12.08;50.89;98899.81;10349659;28;20188;-62
2021/10/21 10:21:10;;;;;;;6.60;1.50;;;;;;;12.29;51.32;98881.50;10348032;28;20217;-62
2021/10/21 10:26:12;;;;;;;6.50;2.00;;;;;;;12.46;50.69;98914.16;10349465;28;20137;-62
2021/10/21 10:31:36;;;;;;;2.65;1.30;;;;;;;12.41;49.67;98913.72;10349301;28;20046;-62
2021/10/21 10:36:40;;;;;;;6.15;1.42;;;;;;;12.65;50.54;98891.53;10348686;28;20058;-62
2021/10/21 10:41:42;;;;;;;8.10;1.70;;;;;;;13.01;49.73;98899.81;10349208;28;20054;-62
2021/10/21 10:46:46;;;;;;;5.72;1.35;;;;;;;12.78;50.27;98905.25;10348288;28;20056;-63
2021/10/21 10:51:57;;;;;;;5.05;1.70;;;;;;;12.72;50.40;98925.94;10348965;28;20050;-62
2021/10/21 10:56:59;;;;;;;7.78;1.70;;;;;;;12.66;51.08;98923.84;10348813;28;20418;-62
2021/10/21 11:02:27;;;;;;;8.30;1.70;;;;;;;12.96;48.74;98926.50;10346354;28;20824;-62
2021/10/21 11:07:41;;;;;;;8.20;1.90;;;;;;;13.23;48.86;98921.47;10346822;28;20402;-63
2021/10/21 11:12:43;;;;;;;8.05;1.90;;;;;;;13.44;48.91;98918.81;10347219;28;20421;-63
2021/10/21 11:17:45;;;;;;;8.52;1.85;;;;;;;13.36;48.89;98923.88;10346417;28;20132;-62
2021/10/21 11:22:47;;;;;;;9.25;1.67;;;;;;;13.18;48.63;98920.22;10346973;28;20054;-62
2021/10/21 11:27:52;;;;;;;8.18;2.17;;;;;;;13.41;48.49;98919.06;10347208;28;20153;-62
2021/10/21 11:32:57;;;;;;;10.73;1.75;;;;;;;13.47;48.45;98913.31;10347062;28;20221;-62
2021/10/21 11:38:13;;;;;;;9.65;1.75;;;;;;;13.54;46.87;98924.91;10346732;28;20052;-62
2021/10/21 11:43:25;;;;;;;10.75;2.00;;;;;;;13.52;47.80;98926.84;10346800;28;20092;-62
2021/10/21 11:48:33;;;;;;;6.43;1.73;;;;;;;13.69;47.40;98934.94;10345677;28;20058;-63
2021/10/21 11:53:35;;;;;;;7.55;1.70;;;;;;;13.70;47.62;98952.34;10345828;28;20050;-62
2021/10/21 11:58:38;;;;;;;8.80;1.80;;;;;;;13.54;48.34;98920.50;10345909;28;20112;-62
2021/10/21 12:03:42;;;;;;;6.35;1.70;;;;;;;13.59;48.34;98913.06;10345695;28;20145;-62
2021/10/21 12:08:53;;;;;;;7.30;1.73;;;;;;;13.96;48.27;98923.78;10345140;28;20545;-62
2021/10/21 12:14:02;;;;;;;7.47;1.90;;;;;;;13.76;47.46;98938.66;10344593;28;20061;-62
2021/10/21 12:19:09;;;;;;;6.75;1.90;;;;;;;13.59;48.08;98915.69;10344307;28;20100;-63
2021/10/21 12:24:25;;;;;;;6.80;1.90;;;;;;;13.36;48.74;98918.63;10345053;28;20050;-63
2021/10/21 12:29:38;;;;;;;11.10;2.00;;;;;;;13.27;49.14;98904.50;10344895;28;20302;-62
2021/10/21 12:34:41;;;;;;;9.88;2.00;;;;;;;13.66;48.24;98892.31;10344731;28;20057;-63
2021/10/21 12:39:43;;;;;;;11.45;2.25;;;;;;;13.59;48.09;98889.41;10343735;28;20375;-62
2021/10/21 12:44:54;;;;;;;10.52;2.30;;;;;;;13.36;47.69;98898.44;10343994;28;20486;-62
2021/10/21 12:50:05;;;;;;;10.57;1.90;;;;;;;13.54;48.12;98891.63;10343251;28;20631;-62
2021/10/21 12:55:20;;;;;;;13.50;2.50;;;;;;;13.39;47.43;98887.66;10342379;28;20064;-63
2021/10/21 13:00:29;;;;;;;12.68;2.00;;;;;;;13.60;47.39;98901.56;10344296;28;20453;-62
2021/10/21 13:05:32;;;;;;;7.63;1.92;;;;;;;13.67;46.97;98900.09;10344254;28;20398;-63
2021/10/21 13:10:46;;;;;;;12.77;2.28;;;;;;;13.67;46.08;98888.72;10343779;28;20046;-63
2021/10/21 13:15:49;;;;;;;6.93;1.92;;;;;;;13.77;45.89;98876.44;10343530;28;20068;-63
2021/10/21 13:20:51;;;;;;;7.45;1.90;;;;;;;14.06;46.16;98890.44;10344034;28;20343;-63
2021/10/21 13:25:53;;;;;;;9.02;2.17;;;;;;;14.41;45.33;98874.88;10343897;28;20141;-63
2021/10/21 13:30:54;;;;;;;9.15;2.03;;;;;;;14.82;45.18;98867.63;10350077;28;20128;-63
2021/10/21 13:35:57;;;;;;;9.38;1.92;;;;;;;14.88;44.05;98867.03;10350748;28;20506;-62
2021/10/21 13:40:59;;;;;;;10.80;2.20;;;;;;;14.83;43.84;98862.22;10351097;28;20696;-63
2021/10/21 13:46:01;;;;;;;8.38;2.10;;;;;;;14.79;43.65;98881.88;10349164;28;20050;-63
2021/10/21 13:51:02;;;;;;;9.82;2.00;;;;;;;14.20;44.81;98890.00;10351305;28;20058;-62
2021/10/21 13:56:06;;;;;;;8.63;2.53;;;;;;;13.90;45.83;98882.25;10350018;28;20064;-63
2021/10/21 14:01:08;;;;;;;8.68;2.00;;;;;;;13.71;46.21;98876.97;10349373;28;20144;-63
2021/10/21 14:06:10;;;;;;;7.75;1.95;;;;;;;13.39;47.37;98866.66;10349927;28;20422;-63
2021/10/21 14:11:12;;;;;;;7.20;2.45;;;;;;;13.29;47.73;98893.88;10381697;28;20536;-62
2021/10/21 14:16:14;;;;;;;9.50;2.03;;;;;;;13.00;50.15;98892.94;10349490;28;20101;-63
2021/10/21 14:21:17;;;;;;;8.27;1.85;;;;;;;12.78;49.73;98888.69;10348309;28;20053;-63
2021/10/21 14:26:19;;;;;;;9.00;2.03;;;;;;;12.88;49.84;98908.75;10349182;28;20124;-62
2021/10/21 14:31:21;;;;;;;7.65;1.92;;;;;;;12.91;49.44;98900.63;10348790;28;20410;-63
2021/10/21 14:36:23;;;;;;;5.85;1.85;;;;;;;12.71;50.96;98898.88;10348946;28;20062;-63
2021/10/21 14:41:25;;;;;;;8.68;2.00;;;;;;;12.41;51.45;98885.72;10347941;28;20046;-62
2021/10/21 14:46:30;;;;;;;9.30;2.30;;;;;;;12.46;53.02;98904.50;10348718;28;20430;-63
2021/10/21 14:51:34;;;;;;;8.20;1.95;;;;;;;12.31;54.15;98929.41;10348624;28;20076;-62
2021/10/21 14:56:36;;;;;;;9.50;2.10;;;;;;;12.34;53.87;98926.50;10348360;28;20100;-63
2021/10/21 15:01:37;;;;;;;8.82;1.80;;;;;;;12.10;54.29;98926.72;10346703;28;20624;-63
2021/10/21 15:27:27;;;;;;;6.67;1.43;;;;;;;10.08;64.05;99129.84;10347433;28;20054;-63
2021/10/21 15:32:31;;;;;;;4.60;1.00;;;;;;;9.50;62.76;99157.31;10346291;28;20060;-63
2021/10/21 15:37:34;;;;;;;2.90;0.88;;;;;;;9.30;63.00;99150.00;10346756;28;20104;-62
2021/10/21 15:42:36;;;;;;;2.38;0.90;;;;;;;9.19;63.59;99157.72;10346047;28;20060;-62
2021/10/21 15:47:45;;;;;;;1.88;0.90;;;;;;;9.19;62.76;99168.16;10346315;28;20045;-62
2021/10/21 16:14:23;;;;;;;3.50;1.27;;;;;;;9.17;63.72;99179.63;10344875;28;20825;-62
2021/10/21 16:19:45;;;;;;;2.88;1.10;;;;;;;9.01;64.35;99187.63;10345316;28;20703;-63
2021/10/21 16:24:51;;;;;;;3.83;1.23;;;;;;;9.02;64.21;99193.66;10345375;28;20060;-62
2021/10/21 16:29:53;;;;;;;6.72;1.60;;;;;;;9.04;64.19;99203.06;10345055;28;20506;-63
2021/10/21 16:34:55;;;;;;;8.02;1.10;;;;;;;8.99;64.16;99192.09;10375558;28;20528;-62
2021/10/21 16:39:57;;;;;;;2.85;0.98;;;;;;;9.03;64.09;99188.34;10344985;28;20049;-63
2021/10/21 16:44:59;;;;;;;2.55;1.10;;;;;;;8.92;64.36;99201.25;10344477;28;20050;-62
2021/10/21 16:50:04;;;;;;;3.40;1.20;;;;;;;8.96;64.87;99207.09;10343522;28;20137;-62
2021/10/21 16:55:07;;;;;;;4.43;1.20;;;;;;;9.01;64.48;99234.56;10344623;28;20056;-62
2021/10/21 17:00:10;;;;;;;5.38;1.30;;;;;;;8.92;64.81;99245.56;10342657;28;20049;-62
2021/10/21 17:05:11;;;;;;;4.07;1.48;;;;;;;8.95;65.04;99268.03;10350351;28;20052;-63
2021/10/21 17:10:13;;;;;;;7.55;1.35;;;;;;;8.92;64.58;99276.88;10351254;28;20316;-62
2021/10/21 17:15:16;;;;;;;5.57;1.75;;;;;;;8.90;65.26;99278.75;10350982;28;20624;-63
2021/10/21 17:20:17;;;;;;;4.18;1.10;;;;;;;8.95;64.94;99289.72;10351701;28;20054;-63
2021/10/21 17:25:19;;;;;;;3.00;1.30;;;;;;;8.94;64.90;99277.59;10349955;28;20081;-62
2021/10/21 17:30:21;;;;;;;5.28;1.52;;;;;;;8.86;65.31;99300.72;10351634;28;20045;-63
2021/10/21 17:35:23;;;;;;;3.50;1.40;;;;;;;8.85;65.38;99314.72;10350876;28;20068;-62
2021/10/21 17:40:25;;;;;;;3.67;1.42;;;;;;;8.74;65.68;99327.56;10350243;28;20049;-62
2021/10/21 17:45:26;;;;;;;8.98;2.10;;;;;;;8.74;65.91;99348.41;10350111;28;20050;-63
2021/10/21 17:50:28;;;;;;;4.47;1.58;;;;;;;8.70;65.92;99358.19;10350782;28;20050;-62
2021/10/21 17:55:30;;;;;;;5.07;1.70;;;;;;;8.76;65.90;99389.13;10350180;28;20050;-63
2021/10/21 18:00:31;;;;;;;5.25;1.73;;;;;;;8.73;66.00;99389.28;10349939;28;20046;-62
2021/10/21 18:05:33;;;;;;;7.20;2.67;;;;;;;8.74;65.92;99401.41;10350013;28;20147;-63
2021/10/21 18:10:35;;;;;;;6.97;2.13;;;;;;;8.73;65.93;99404.06;10350554;28;20589;-62
2021/10/21 18:15:37;;;;;;;5.60;1.80;;;;;;;8.82;66.09;99420.03;10346150;28;20395;-62
2021/10/21 18:20:40;;;;;;;6.10;1.70;;;;;;;8.84;65.94;99428.59;10348233;28;20516;-63
2021/10/21 18:25:42;;;;;;;8.43;1.90;;;;;;;8.89;65.72;99446.56;10349291;28;21007;-63
2021/10/21 18:30:45;;;;;;;4.85;1.95;;;;;;;8.85;65.49;99452.91;10350011;28;20569;-62
2021/10/21 18:35:52;;;;;;;5.90;2.67;;;;;;;8.85;65.56;99456.34;10349130;28;20217;-62
2021/10/21 18:40:54;;;;;;;6.63;1.70;;;;;;;8.77;65.17;99468.19;10348290;28;20049;-63
2021/10/21 18:45:56;;;;;;;7.20;2.03;;;;;;;8.53;65.47;99478.25;10348918;28;20141;-62
2021/10/21 18:50:58;;;;;;;7.43;2.20;;;;;;;8.50;65.87;99480.22;10380025;28;20054;-63
2021/10/21 18:56:00;;;;;;;8.73;2.30;;;;;;;8.42;65.39;99488.50;10348186;28;20053;-63
2021/10/21 19:01:03;;;;;;;13.27;2.40;;;;;;;8.42;65.51;99487.66;10348282;28;20074;-63
2021/10/21 19:06:12;;;;;;;6.90;2.58;;;;;;;8.38;65.64;99491.34;10348210;28;20046;-62
2021/10/21 19:11:15;;;;;;;9.77;2.75;;;;;;;8.29;65.58;99505.75;10348155;28;20046;-62
2021/10/21 19:16:30;;;;;;;7.20;2.47;;;;;;;8.19;65.79;99509.78;10346878;28;20139;-62
2021/10/21 19:21:32;;;;;;;11.35;2.80;;;;;;;8.03;65.97;99516.75;10347688;28;20077;-62
2021/10/21 19:26:34;;;;;;;6.55;2.20;;;;;;;7.92;66.27;99526.91;10346789;28;20049;-62
2021/10/21 19:31:35;;;;;;;8.77;2.72;;;;;;;7.85;66.30;99536.00;10347063;28;20498;-63
2021/10/21 19:36:38;;;;;;;9.60;2.50;;;;;;;7.68;66.77;99534.31;10345555;28;20293;-62
2021/10/21 19:41:40;;;;;;;17.50;8.90;;;;;;;7.68;66.66;99549.09;10378353;28;20046;-62
2021/10/21 19:46:42;;;;;;;29.85;16.55;;;;;;;7.65;66.73;99551.88;10345625;28;20080;-62
2021/10/21 19:51:44;;;;;;;22.77;13.35;;;;;;;7.55;66.94;99561.91;10346359;28;20407;-62
2021/10/21 19:56:45;;;;;;;9.48;3.25;;;;;;;7.39;67.34;99566.25;10346310;28;20145;-63
2021/10/21 20:01:48;;;;;;;12.45;3.42;;;;;;;7.38;67.20;99574.13;10345271;28;20107;-62
2021/10/21 20:06:51;;;;;;;12.23;3.38;;;;;;;7.33;67.10;99581.31;10345745;28;20052;-63
2021/10/21 20:11:59;;;;;;;13.18;2.88;;;;;;;7.33;66.93;99597.78;10345862;28;20137;-62
2021/10/21 20:17:00;;;;;;;12.50;2.72;;;;;;;7.27;66.84;99613.72;10345477;28;20057;-62
2021/10/21 20:22:06;;;;;;;12.00;2.80;;;;;;;7.30;66.52;99610.13;10344986;28;20054;-62
2021/10/21 20:27:08;;;;;;;13.57;2.85;;;;;;;7.28;66.43;99618.00;10344337;28;20064;-62
2021/10/21 20:32:10;;;;;;;17.85;3.22;;;;;;;7.23;66.34;99633.00;10345599;28;20176;-62
2021/10/21 20:37:13;;;;;;;13.95;2.65;;;;;;;7.12;66.09;99641.34;10343610;28;20461;-63
2021/10/21 20:42:15;;;;;;;16.33;2.92;;;;;;;7.18;65.77;99651.41;10345116;28;20229;-62
2021/10/21 20:47:16;;;;;;;14.98;2.83;;;;;;;7.10;66.01;99666.56;10345513;28;20139;-62
2021/10/21 20:52:18;;;;;;;14.25;2.97;;;;;;;7.10;65.76;99669.16;10344651;28;20054;-63
2021/10/21 20:57:20;;;;;;;14.90;3.15;;;;;;;7.03;65.82;99667.81;10344056;28;20049;-63
2021/10/21 21:02:23;;;;;;;11.95;2.80;;;;;;;7.02;65.84;99675.69;10344586;28;20131;-62
2021/10/21 21:07:26;;;;;;;16.60;3.25;;;;;;;7.04;65.70;99684.25;10344658;28;20046;-62
2021/10/21 21:12:28;;;;;;;15.70;3.10;;;;;;;6.96;66.12;99694.16;10344355;28;20050;-62
2021/10/21 21:17:46;;;;;;;14.70;2.55;;;;;;;6.93;65.91;99702.13;10343917;28;20145;-63
2021/10/21 21:22:48;;;;;;;14.98;2.92;;;;;;;6.86;65.89;99706.78;10343950;28;20053;-62
2021/10/21 21:27:50;;;;;;;16.13;2.88;;;;;;;6.89;66.37;99705.78;10343307;28;20046;-62
2021/10/21 21:32:52;;;;;;;20.60;3.00;;;;;;;6.82;66.09;99710.44;10341843;28;20076;-62
2021/10/21 21:37:54;;;;;;;18.50;3.13;;;;;;;6.76;65.96;99710.72;10329202;28;20054;-62
2021/10/21 21:42:56;;;;;;;19.90;3.63;;;;;;;6.72;66.10;99722.19;10341541;28;20392;-62
2021/10/21 21:47:57;;;;;;;19.33;3.30;;;;;;;6.71;66.29;99722.25;10343191;28;20469;-62
2021/10/21 21:52:59;;;;;;;15.07;3.38;;;;;;;6.66;66.32;99724.22;10349733;28;20064;-62
2021/10/21 21:58:01;;;;;;;15.23;3.28;;;;;;;6.63;66.38;99720.03;10349278;28;20160;-62
2021/10/21 22:03:03;;;;;;;21.10;3.10;;;;;;;6.55;66.16;99726.50;10347665;28;20050;-62
2021/10/21 22:08:05;;;;;;;14.20;3.10;;;;;;;6.42;66.31;99734.00;10347204;28;20056;-62
2021/10/21 22:13:08;;;;;;;16.30;3.40;;;;;;;6.25;66.93;99741.72;10348926;28;20062;-62
2021/10/21 22:18:10;;;;;;;17.67;3.08;;;;;;;6.24;66.86;99743.47;10348052;28;20045;-62
2021/10/21 22:23:12;;;;;;;18.13;3.25;;;;;;;6.16;67.22;99745.56;10349057;28;20052;-62
2021/10/21 22:28:14;;;;;;;16.80;3.20;;;;;;;6.10;67.54;99761.38;10347203;28;20473;-62
2021/10/21 22:33:16;;;;;;;13.63;2.60;;;;;;;6.11;67.55;99763.09;10346842;28;20391;-62
2021/10/21 22:38:19;;;;;;;16.45;3.28;;;;;;;6.13;67.15;99757.81;10347859;28;20073;-62
2021/10/21 22:43:21;;;;;;;18.85;3.80;;;;;;;6.09;67.15;99764.91;10346395;28;20517;-62
2021/10/21 22:48:26;;;;;;;11.20;2.88;;;;;;;6.06;67.34;99770.22;10347025;28;20517;-62
2021/10/21 22:53:28;;;;;;;15.50;3.55;;;;;;;5.97;67.32;99775.81;10346577;28;20064;-62
2021/10/21 22:58:32;;;;;;;18.60;3.22;;;;;;;5.93;67.35;99789.00;10346656;28;20061;-62
2021/10/21 23:03:38;;;;;;;18.70;3.00;;;;;;;5.88;67.70;99801.34;10377445;28;20438;-62
2021/10/21 23:08:40;;;;;;;16.50;3.10;;;;;;;5.87;67.91;99807.44;10346154;28;20312;-62
2021/10/21 23:13:42;;;;;;;15.75;3.17;;;;;;;5.87;67.82;99816.06;10346084;28;20054;-62
2021/10/21 23:18:44;;;;;;;11.52;2.80;;;;;;;5.83;67.78;99827.47;10344646;28;20258;-62
2021/10/21 23:23:45;;;;;;;17.88;3.33;;;;;;;5.83;67.79;99842.19;10345786;28;20042;-62
2021/10/21 23:28:47;;;;;;;13.13;3.25;;;;;;;5.73;68.12;99843.50;10345946;28;20058;-63
2021/10/21 23:33:49;;;;;;;17.58;3.53;;;;;;;5.65;68.24;99855.94;10345635;28;20350;-62
2021/10/21 23:38:52;;;;;;;15.70;3.35;;;;;;;5.59;68.36;99869.16;10345046;28;20065;-63
2021/10/21 23:43:54;;;;;;;18.40;3.05;;;;;;;5.41;68.54;99865.56;10345169;28;20061;-62
2021/10/21 23:48:56;;;;;;;15.13;3.20;;;;;;;5.35;68.75;99873.59;10344242;28;20053;-62
2021/10/21 23:53:57;;;;;;;12.82;2.70;;;;;;;5.31;68.75;99870.25;10342647;28;20853;-63
2021/10/21 23:58:59;;;;;;;15.23;3.00;;;;;;;5.17;69.17;99882.06;10343644;28;20137;-62
